Time;durP1;ratioP1;P1;durP2;ratioP2;P2;SDS_P1;SDS_P2;PMS_P1;PMS_P2;Temp;Humidity;BMP_temperature;BMP_pressure;BME280_temperature;BME280_humidity;BME280_pressure;Samples;Min_cycle;Max_cycle;Signal;HPM_P1;HPM_P2
2022/06/03 00:02:57;;;;;;;17.38;6.10;;;11.60;99.90;;;;;;5013726;28;20320;-76
2022/06/03 00:05:51;;;;;;;6.82;6.13;;;11.60;99.90;;;;;;5014025;28;20300;-76
2022/06/03 00:09:02;;;;;;;9.70;5.68;;;11.60;99.90;;;;;;5013353;28;20631;-75
2022/06/03 00:12:00;;;;;;;8.85;6.25;;;11.60;99.90;;;;;;5003270;28;20202;-75
2022/06/03 00:14:41;;;;;;;8.25;5.85;;;11.60;99.90;;;;;;5012495;28;20228;-75
2022/06/03 00:17:30;;;;;;;8.63;6.93;;;11.60;99.90;;;;;;5013543;28;20288;-75
2022/06/03 00:20:08;;;;;;;14.10;5.70;;;11.60;99.90;;;;;;5014909;28;20675;-76
2022/06/03 00:22:56;;;;;;;8.25;5.50;;;11.50;99.90;;;;;;5016238;28;20234;-75
2022/06/03 00:25:51;;;;;;;6.75;5.72;;;11.50;99.90;;;;;;5015692;28;20221;-75
2022/06/03 00:28:53;;;;;;;8.95;6.50;;;11.50;99.90;;;;;;5019311;28;20209;-75
2022/06/03 00:31:41;;;;;;;10.45;6.25;;;11.50;99.90;;;;;;4981397;28;20212;-75
2022/06/03 00:34:32;;;;;;;11.52;6.82;;;11.50;99.90;;;;;;5009305;28;20269;-75
2022/06/03 00:37:18;;;;;;;9.93;6.13;;;11.40;99.90;;;;;;5010474;28;20209;-76
2022/06/03 00:40:00;;;;;;;10.93;7.10;;;11.40;99.90;;;;;;5013291;28;20205;-75
2022/06/03 00:43:03;;;;;;;12.30;5.80;;;11.30;99.90;;;;;;5011624;28;20216;-76
2022/06/03 00:45:47;;;;;;;6.60;5.47;;;11.30;99.90;;;;;;5007561;28;20212;-75
2022/06/03 00:48:37;;;;;;;8.18;5.72;;;11.30;99.90;;;;;;5017105;28;20208;-75
2022/06/03 00:51:49;;;;;;;12.75;6.60;;;11.30;99.90;;;;;;5021000;28;20252;-75
2022/06/03 00:54:59;;;;;;;8.90;6.82;;;11.30;99.90;;;;;;5005274;28;20241;-75
2022/06/03 00:57:56;;;;;;;9.70;6.38;;;11.20;99.90;;;;;;5022363;28;20581;-75
2022/06/03 01:00:27;;;;;;;11.20;7.13;;;11.10;99.90;;;;;;5011083;28;20243;-74
2022/06/03 01:03:25;;;;;;;13.63;8.00;;;11.10;99.90;;;;;;5014442;28;20256;-75
2022/06/03 01:06:14;;;;;;;9.20;7.35;;;11.10;99.90;;;;;;4996863;28;20208;-76
2022/06/03 01:08:50;;;;;;;7.82;6.88;;;11.00;99.90;;;;;;5010216;28;20280;-76
2022/06/03 01:11:40;;;;;;;9.80;7.22;;;11.00;99.90;;;;;;5011116;28;20658;-75
2022/06/03 01:14:21;;;;;;;12.77;8.35;;;11.10;99.90;;;;;;5012321;28;20234;-75
2022/06/03 01:17:07;;;;;;;11.20;6.82;;;11.10;99.90;;;;;;5016808;28;20338;-75
2022/06/03 01:19:59;;;;;;;11.65;7.60;;;11.10;99.90;;;;;;5020232;28;20205;-75
2022/06/03 01:23:00;;;;;;;11.43;8.38;;;11.10;99.90;;;;;;5016092;28;20234;-75
2022/06/03 01:25:51;;;;;;;13.63;7.63;;;11.00;99.90;;;;;;4978319;28;20328;-76
2022/06/03 01:29:03;;;;;;;13.13;8.65;;;11.00;99.90;;;;;;5011955;28;20246;-76
2022/06/03 01:32:07;;;;;;;14.35;8.70;;;11.00;99.90;;;;;;4994502;28;20304;-75
2022/06/03 01:34:52;;;;;;;11.07;8.43;;;10.90;99.90;;;;;;5009246;28;20237;-76
2022/06/03 01:37:26;;;;;;;14.57;9.00;;;10.90;99.90;;;;;;5019185;28;20283;-75
2022/06/03 01:40:12;;;;;;;12.68;8.18;;;10.90;99.90;;;;;;5021631;28;20193;-76
2022/06/03 01:43:07;;;;;;;14.70;8.75;;;10.90;99.90;;;;;;5005754;28;20259;-74
2022/06/03 01:46:03;;;;;;;13.85;7.95;;;10.80;99.90;;;;;;5002682;28;20304;-75
2022/06/03 01:48:56;;;;;;;12.75;9.77;;;10.70;99.90;;;;;;5011252;28;20211;-74
2022/06/03 01:51:46;;;;;;;9.07;7.22;;;10.70;99.90;;;;;;4980140;28;20255;-74
2022/06/03 01:54:52;;;;;;;10.80;8.63;;;10.80;99.90;;;;;;5005720;28;20236;-75
2022/06/03 01:57:39;;;;;;;14.20;9.40;;;10.70;99.90;;;;;;5014132;28;20671;-74
2022/06/03 02:00:24;;;;;;;17.25;10.43;;;10.70;99.90;;;;;;5012660;28;20201;-75
2022/06/03 02:03:25;;;;;;;15.20;10.00;;;10.70;99.90;;;;;;5013916;28;20267;-74
2022/06/03 02:06:25;;;;;;;17.30;8.77;;;10.70;99.90;;;;;;5006003;28;20352;-74
2022/06/03 02:09:26;;;;;;;15.32;8.20;;;10.60;99.90;;;;;;5001190;28;20626;-74
2022/06/03 02:12:08;;;;;;;12.30;8.57;;;10.60;99.90;;;;;;5015012;28;20639;-74
2022/06/03 02:15:10;;;;;;;12.05;8.95;;;10.60;99.90;;;;;;5012477;28;20276;-75
2022/06/03 02:18:40;;;;;;;13.60;8.75;;;10.60;99.90;;;;;;5015736;28;20203;-76
2022/06/03 02:21:32;;;;;;;11.45;9.20;;;10.60;99.90;;;;;;5018860;28;20627;-75
2022/06/03 02:24:33;;;;;;;16.30;9.90;;;10.50;99.90;;;;;;5014740;28;20253;-74
2022/06/03 02:27:37;;;;;;;14.73;10.38;;;10.50;99.90;;;;;;5013260;28;20283;-74
2022/06/03 02:30:30;;;;;;;17.02;11.15;;;10.40;99.90;;;;;;5004115;28;20252;-73
2022/06/03 02:33:25;;;;;;;14.75;9.38;;;10.40;99.90;;;;;;5014278;28;20256;-74
2022/06/03 02:36:34;;;;;;;16.92;10.65;;;10.40;99.90;;;;;;5008072;28;20284;-75
2022/06/03 02:39:12;;;;;;;13.15;10.38;;;10.40;99.90;;;;;;5003415;28;20706;-75
2022/06/03 02:42:00;;;;;;;16.15;10.30;;;10.30;99.90;;;;;;5012910;28;20221;-75
2022/06/03 02:45:01;;;;;;;17.92;12.15;;;10.30;99.90;;;;;;5015966;28;20271;-75
2022/06/03 02:48:04;;;;;;;16.20;12.68;;;10.40;99.90;;;;;;5011612;28;20204;-75
2022/06/03 02:51:09;;;;;;;20.20;12.10;;;10.30;99.90;;;;;;5012787;28;20200;-74
2022/06/03 02:54:22;;;;;;;16.83;11.45;;;10.30;99.90;;;;;;5002089;28;20231;-74
2022/06/03 02:57:06;;;;;;;24.42;13.30;;;10.20;99.90;;;;;;4966515;28;20229;-74
2022/06/03 02:59:55;;;;;;;19.42;12.35;;;10.20;99.90;;;;;;5007842;28;20207;-76
2022/06/03 03:02:51;;;;;;;15.98;12.10;;;10.20;99.90;;;;;;5014600;28;20304;-75
2022/06/03 03:05:30;;;;;;;18.10;11.80;;;10.20;99.90;;;;;;5002799;28;20228;-75
2022/06/03 03:08:34;;;;;;;16.05;10.32;;;10.20;99.90;;;;;;5025804;28;20223;-74
2022/06/03 03:11:41;;;;;;;18.20;13.00;;;10.20;99.90;;;;;;5021973;28;20207;-76
2022/06/03 03:14:34;;;;;;;17.33;12.75;;;10.20;99.90;;;;;;4992099;28;20236;-75
2022/06/03 03:17:25;;;;;;;15.95;11.93;;;10.20;99.90;;;;;;5025015;28;20508;-75
2022/06/03 03:20:22;;;;;;;14.05;12.55;;;10.30;99.90;;;;;;5007761;28;20197;-75
2022/06/03 03:23:19;;;;;;;17.98;14.50;;;10.30;99.90;;;;;;5013651;28;20247;-75
2022/06/03 03:25:58;;;;;;;18.23;13.50;;;10.30;99.90;;;;;;5014032;28;20267;-74
2022/06/03 03:29:08;;;;;;;19.17;13.50;;;10.30;99.90;;;;;;5012977;28;20627;-74
2022/06/03 03:32:09;;;;;;;22.63;15.00;;;10.40;99.90;;;;;;4966626;28;20205;-75
2022/06/03 03:35:08;;;;;;;27.50;15.55;;;10.40;99.90;;;;;;5008442;28;20621;-75
2022/06/03 03:38:10;;;;;;;18.77;14.65;;;10.40;99.90;;;;;;5010939;28;20229;-75
2022/06/03 03:41:06;;;;;;;19.23;13.05;;;10.40;99.90;;;;;;5007038;28;20236;-74
2022/06/03 03:44:05;;;;;;;19.10;14.77;;;10.50;99.90;;;;;;5005141;28;20304;-75
2022/06/03 03:47:12;;;;;;;19.35;14.27;;;10.50;99.90;;;;;;5011358;28;20240;-75
2022/06/03 03:50:15;;;;;;;19.92;13.57;;;10.50;99.90;;;;;;4974281;28;20204;-74
2022/06/03 03:53:29;;;;;;;18.17;13.02;;;10.60;99.90;;;;;;5001667;28;20216;-75
2022/06/03 03:56:26;;;;;;;17.73;14.27;;;10.70;99.90;;;;;;5006997;28;20272;-75
2022/06/03 03:59:32;;;;;;;23.83;13.48;;;10.80;99.90;;;;;;5009187;28;20237;-74
2022/06/03 04:02:40;;;;;;;17.77;14.82;;;10.80;99.90;;;;;;5013542;28;20676;-74
2022/06/03 04:05:49;;;;;;;18.42;13.40;;;11.00;99.90;;;;;;5012577;28;20255;-74
2022/06/03 04:08:48;;;;;;;16.58;14.85;;;11.10;99.90;;;;;;4973740;28;20241;-75
2022/06/03 04:11:51;;;;;;;14.15;12.35;;;11.70;99.90;;;;;;5013413;28;20712;-75
2022/06/03 04:15:06;;;;;;;12.80;10.30;;;12.80;99.90;;;;;;4997796;28;20234;-75
2022/06/03 04:18:10;;;;;;;12.60;10.35;;;14.00;99.90;;;;;;4981329;28;20205;-75
2022/06/03 04:21:10;;;;;;;11.68;10.43;;;14.90;99.90;;;;;;4996192;28;20249;-74
2022/06/03 04:24:29;;;;;;;13.70;10.68;;;15.90;99.90;;;;;;5014611;28;20233;-74
2022/06/03 04:27:34;;;;;;;12.05;10.02;;;16.90;99.90;;;;;;5013979;28;20221;-74
2022/06/03 04:30:40;;;;;;;9.93;8.07;;;17.80;99.90;;;;;;5008949;28;20654;-76
2022/06/03 04:34:08;;;;;;;10.93;9.67;;;18.70;99.90;;;;;;5012019;28;20973;-76
2022/06/03 04:37:19;;;;;;;10.63;8.10;;;19.60;99.90;;;;;;4951021;28;21020;-76
2022/06/03 04:40:32;;;;;;;10.73;8.00;;;20.30;97.30;;;;;;4938331;28;20466;-74
2022/06/03 04:43:50;;;;;;;13.33;8.87;;;20.60;96.20;;;;;;4955796;28;20470;-75
2022/06/03 04:47:12;;;;;;;13.60;9.13;;;20.90;94.90;;;;;;5009006;28;20550;-76
2022/06/03 04:50:25;;;;;;;9.20;7.90;;;21.30;92.80;;;;;;5017553;28;20507;-75
2022/06/03 04:53:42;;;;;;;10.30;7.83;;;21.80;92.10;;;;;;5018817;28;20557;-76
2022/06/03 04:57:01;;;;;;;11.30;8.00;;;21.90;91.00;;;;;;5022833;28;20436;-76
2022/06/03 05:00:04;;;;;;;9.13;7.43;;;22.10;91.00;;;;;;5037975;28;20439;-75
2022/06/03 05:03:32;;;;;;;7.70;6.90;;;22.30;90.10;;;;;;5009455;28;20526;-75
2022/06/03 05:06:48;;;;;;;11.23;7.50;;;22.50;90.10;;;;;;5017460;28;20512;-76
2022/06/03 05:09:54;;;;;;;6.77;5.57;;;22.80;89.10;;;;;;5005942;28;20459;-76
2022/06/03 05:13:08;;;;;;;6.80;6.10;;;22.80;88.70;;;;;;5016283;28;20513;-76
2022/06/03 05:16:11;;;;;;;12.17;6.03;;;23.20;87.30;;;;;;5017424;28;20526;-76
2022/06/03 05:19:24;;;;;;;7.73;6.50;;;23.30;85.80;;;;;;5024219;28;20446;-77
2022/06/03 05:25:23;;;;;;;10.60;6.20;;;24.00;84.90;;;;;;5011228;28;20487;-75
2022/06/03 05:28:28;;;;;;;7.50;5.60;;;24.30;83.30;;;;;;5012094;28;20523;-75
2022/06/03 05:31:35;;;;;;;6.70;5.77;;;24.60;82.30;;;;;;5012692;28;20497;-75
2022/06/03 05:34:54;;;;;;;8.20;6.50;;;24.60;81.90;;;;;;5016508;28;20451;-75
2022/06/03 05:37:54;;;;;;;6.50;4.80;;;24.30;81.30;;;;;;5016583;28;20440;-75
2022/06/03 05:40:35;;;;;;;8.07;5.17;;;24.70;81.50;;;;;;5029620;28;20492;-76
2022/06/03 05:43:19;;;;;;;6.43;5.20;;;25.10;80.50;;;;;;5019660;28;20523;-75
2022/06/03 05:46:07;;;;;;;11.13;5.70;;;25.40;79.30;;;;;;5028151;28;20890;-76
2022/06/03 05:48:47;;;;;;;7.40;5.20;;;25.40;79.10;;;;;;5008824;28;20484;-75
2022/06/03 05:51:37;;;;;;;9.40;5.77;;;25.30;78.80;;;;;;5013833;28;20903;-75
2022/06/03 05:54:14;;;;;;;5.30;4.80;;;25.20;78.90;;;;;;5013342;28;20522;-75
2022/06/03 05:57:00;;;;;;;6.07;5.47;;;25.60;78.60;;;;;;5018337;28;20473;-74
2022/06/03 05:59:52;;;;;;;7.07;6.00;;;26.00;78.00;;;;;;5017921;28;20455;-74
2022/06/03 06:02:27;;;;;;;8.47;4.80;;;25.80;76.50;;;;;;5013884;28;20487;-74
2022/06/03 06:05:12;;;;;;;6.83;5.00;;;26.50;75.30;;;;;;5025717;28;20486;-75
2022/06/03 06:07:49;;;;;;;7.70;4.90;;;27.00;73.90;;;;;;5027226;28;20432;-75
2022/06/03 06:10:30;;;;;;;8.83;5.70;;;27.30;72.70;;;;;;5037399;28;20938;-75
2022/06/03 06:13:20;;;;;;;5.17;4.33;;;27.50;72.30;;;;;;5022854;28;20521;-74
2022/06/03 06:16:06;;;;;;;5.60;4.80;;;27.70;70.70;;;;;;5011386;28;20444;-77
2022/06/03 06:18:44;;;;;;;7.00;4.97;;;28.00;69.30;;;;;;5022997;28;20508;-76
2022/06/03 06:21:32;;;;;;;6.63;4.33;;;28.60;68.50;;;;;;5028448;28;20487;-74
2022/06/03 06:24:12;;;;;;;6.70;5.03;;;28.30;67.50;;;;;;5013077;28;20520;-74
2022/06/03 06:27:16;;;;;;;7.90;5.70;;;28.00;68.70;;;;;;5009679;28;20507;-73
2022/06/03 06:30:21;;;;;;;6.93;5.23;;;28.20;68.10;;;;;;5012969;28;20462;-73
2022/06/03 06:33:24;;;;;;;5.93;4.73;;;27.80;68.20;;;;;;5019225;28;20542;-73
2022/06/03 06:36:22;;;;;;;9.87;4.50;;;27.80;67.40;;;;;;5007590;28;20539;-74
2022/06/03 06:39:01;;;;;;;5.33;4.23;;;27.90;68.00;;;;;;5013382;28;20467;-76
2022/06/03 06:41:41;;;;;;;7.70;4.90;;;27.90;67.10;;;;;;5009334;28;20443;-74
2022/06/03 06:44:10;;;;;;;7.83;4.80;;;27.50;67.40;;;;;;5020817;28;20447;-74
2022/06/03 06:46:50;;;;;;;7.80;5.67;;;27.50;68.10;;;;;;5022618;28;20499;-75
2022/06/03 06:49:27;;;;;;;4.43;4.00;;;28.00;67.50;;;;;;5015065;28;20487;-75
2022/06/03 06:52:34;;;;;;;6.93;4.17;;;28.40;65.90;;;;;;5009707;28;20826;-75
2022/06/03 06:55:11;;;;;;;8.33;4.83;;;28.80;64.20;;;;;;4980192;28;20544;-74
2022/06/03 06:57:46;;;;;;;6.27;3.93;;;28.50;64.10;;;;;;5010634;28;20448;-75
2022/06/03 07:00:22;;;;;;;5.30;4.47;;;29.00;63.30;;;;;;5015495;28;20535;-73
2022/06/03 07:02:53;;;;;;;7.20;4.03;;;29.40;60.50;;;;;;5011921;28;20467;-73
2022/06/03 07:05:27;;;;;;;4.67;4.27;;;29.50;60.40;;;;;;5007926;28;21043;-71
2022/06/03 07:08:01;;;;;;;6.37;4.30;;;29.60;60.80;;;;;;5014030;28;20475;-71
2022/06/03 07:10:35;;;;;;;4.77;3.73;;;29.70;61.60;;;;;;5011446;28;20451;-73
2022/06/03 07:13:10;;;;;;;4.87;3.90;;;29.60;60.80;;;;;;5006883;28;20797;-73
2022/06/03 07:16:01;;;;;;;3.83;3.03;;;30.30;59.40;;;;;;5014368;28;20472;-73
2022/06/03 07:21:34;;;;;;;4.07;2.80;;;30.80;56.90;;;;;;5018801;28;20427;-74
2022/06/03 07:24:07;;;;;;;3.97;3.57;;;30.90;56.80;;;;;;5017690;28;20454;-73
2022/06/03 07:26:37;;;;;;;4.07;3.27;;;31.00;56.10;;;;;;5013047;28;20479;-73
2022/06/03 07:29:13;;;;;;;6.00;3.57;;;31.30;54.90;;;;;;5012083;28;20820;-74
2022/06/03 07:31:47;;;;;;;6.53;3.07;;;30.90;56.10;;;;;;5006880;28;20554;-73
2022/06/03 07:34:19;;;;;;;4.80;3.10;;;30.70;56.20;;;;;;5006058;28;20456;-72
2022/06/03 07:36:54;;;;;;;8.43;3.50;;;31.40;55.30;;;;;;5012504;28;20487;-74
2022/06/03 07:39:42;;;;;;;7.03;4.23;;;31.40;55.40;;;;;;5011732;28;20447;-73
2022/06/03 07:42:17;;;;;;;4.43;3.67;;;31.70;54.70;;;;;;5012014;28;20547;-73
2022/06/03 07:45:10;;;;;;;4.93;3.13;;;31.80;55.20;;;;;;5014261;28;20489;-72
2022/06/03 07:47:37;;;;;;;4.43;2.80;;;32.20;53.90;;;;;;5013511;28;20511;-73
2022/06/03 07:50:08;;;;;;;5.30;3.27;;;32.10;54.00;;;;;;5013975;28;20527;-74
2022/06/03 07:52:41;;;;;;;4.60;3.00;;;31.80;54.20;;;;;;5007915;28;20475;-74
2022/06/03 07:55:12;;;;;;;4.67;2.70;;;31.90;53.20;;;;;;5011839;28;20515;-72
2022/06/03 07:57:40;;;;;;;3.40;2.33;;;31.90;54.00;;;;;;5013664;28;20446;-72
2022/06/03 08:00:16;;;;;;;9.50;2.47;;;31.80;52.90;;;;;;5012477;28;20479;-72
2022/06/03 08:02:43;;;;;;;2.60;2.40;;;32.40;52.40;;;;;;5013159;28;20467;-72
2022/06/03 08:05:13;;;;;;;5.73;2.60;;;32.50;52.20;;;;;;5013824;28;20519;-73
2022/06/03 08:13:18;;;;;;;4.43;2.50;;;32.80;51.70;;;;;;5015341;28;20467;-73
2022/06/03 08:15:54;;;;;;;3.43;2.20;;;32.40;51.40;;;;;;5014555;28;20940;-73
2022/06/03 08:18:22;;;;;;;2.27;1.83;;;32.30;51.30;;;;;;5013996;28;20602;-73
2022/06/03 08:20:53;;;;;;;2.80;2.13;;;32.80;51.60;;;;;;5012058;28;20938;-73
2022/06/03 08:23:21;;;;;;;4.70;3.30;;;32.60;50.30;;;;;;5011867;28;20464;-73
2022/06/03 08:25:51;;;;;;;2.60;1.97;;;32.80;51.20;;;;;;5013796;28;20478;-73
2022/06/03 08:28:22;;;;;;;5.00;2.77;;;32.70;51.20;;;;;;5005969;28;20538;-73
2022/06/03 08:30:54;;;;;;;6.07;2.67;;;33.40;50.00;;;;;;5006068;28;20566;-73
2022/06/03 08:33:31;;;;;;;3.00;2.33;;;33.20;50.10;;;;;;5006626;28;20517;-72
2022/06/03 08:35:58;;;;;;;3.87;2.20;;;33.60;49.20;;;;;;5014048;28;20462;-72
2022/06/03 08:38:30;;;;;;;3.50;2.37;;;33.90;49.50;;;;;;5014391;28;20447;-72
2022/06/03 08:41:08;;;;;;;2.23;1.90;;;33.40;50.60;;;;;;5011655;28;20476;-73
2022/06/03 08:43:54;;;;;;;6.57;2.30;;;33.10;49.50;;;;;;5008586;28;20506;-72
2022/06/03 08:46:28;;;;;;;4.57;2.90;;;32.80;49.40;;;;;;5016093;28;20483;-72
2022/06/03 08:49:02;;;;;;;2.07;1.80;;;32.90;50.40;;;;;;5014674;28;20436;-72
2022/06/03 08:51:41;;;;;;;3.43;1.77;;;32.70;49.40;;;;;;5025360;28;20436;-73
2022/06/03 08:54:18;;;;;;;1.93;1.70;;;33.50;48.70;;;;;;5025430;28;20503;-73
2022/06/03 08:56:48;;;;;;;2.97;2.03;;;33.50;48.50;;;;;;5025139;28;20455;-73
2022/06/03 08:59:21;;;;;;;3.20;2.20;;;33.60;49.10;;;;;;5024183;28;20478;-73
2022/06/03 09:01:56;;;;;;;4.00;2.00;;;33.90;48.10;;;;;;5030472;28;20498;-73
2022/06/03 09:04:30;;;;;;;2.70;2.37;;;33.70;47.90;;;;;;5031595;28;20499;-72
2022/06/03 09:07:02;;;;;;;4.13;2.27;;;33.70;46.60;;;;;;5029555;28;20476;-72
2022/06/03 09:09:35;;;;;;;3.90;1.90;;;33.80;46.60;;;;;;5015126;28;20510;-74
2022/06/03 09:12:12;;;;;;;3.43;1.97;;;33.70;46.30;;;;;;5012905;28;21005;-74
2022/06/03 09:14:42;;;;;;;2.90;2.43;;;33.70;46.10;;;;;;5010062;28;21028;-73
2022/06/03 09:17:26;;;;;;;2.67;2.13;;;34.00;46.60;;;;;;5019237;28;20467;-74
2022/06/03 09:19:57;;;;;;;3.47;2.33;;;33.90;44.60;;;;;;5012959;28;20463;-72
2022/06/03 09:22:27;;;;;;;4.30;2.30;;;33.70;45.60;;;;;;5010480;28;20521;-72
2022/06/03 09:25:03;;;;;;;3.90;1.87;;;33.40;46.80;;;;;;5013284;28;20964;-74
2022/06/03 09:27:31;;;;;;;3.13;2.50;;;33.30;45.80;;;;;;5013029;28;20873;-74
2022/06/03 09:30:02;;;;;;;2.60;2.17;;;32.80;47.80;;;;;;5013306;28;20474;-72
2022/06/03 09:32:38;;;;;;;2.80;1.83;;;32.50;47.80;;;;;;5013699;28;20507;-73
2022/06/03 09:35:09;;;;;;;1.93;1.73;;;32.20;48.40;;;;;;5015442;28;20627;-74
2022/06/03 09:37:42;;;;;;;3.53;2.00;;;32.30;47.60;;;;;;5015009;28;20526;-74
2022/06/03 09:40:14;;;;;;;8.03;2.30;;;32.40;47.10;;;;;;5016959;28;20483;-73
2022/06/03 09:42:48;;;;;;;3.90;2.17;;;32.40;47.60;;;;;;5015963;28;20475;-74
2022/06/03 09:45:20;;;;;;;3.33;2.40;;;31.60;49.10;;;;;;5016113;28;21115;-73
2022/06/03 09:47:49;;;;;;;2.43;1.40;;;31.10;49.40;;;;;;5016275;28;20471;-73
2022/06/03 09:50:18;;;;;;;2.13;1.93;;;31.30;48.90;;;;;;5017577;28;20468;-74
2022/06/03 09:52:48;;;;;;;2.53;2.17;;;31.30;47.80;;;;;;5021895;28;20468;-73
2022/06/03 09:55:25;;;;;;;2.50;2.17;;;31.80;48.30;;;;;;5014751;28;20506;-74
2022/06/03 09:57:55;;;;;;;2.37;2.00;;;31.40;47.00;;;;;;5021518;28;20462;-72
2022/06/03 10:00:25;;;;;;;3.13;2.00;;;31.20;48.00;;;;;;5015951;28;20444;-73
2022/06/03 10:02:56;;;;;;;3.17;2.13;;;30.90;48.90;;;;;;5015027;28;20467;-72
2022/06/03 10:05:23;;;;;;;2.90;2.07;;;30.40;49.70;;;;;;5017417;28;20815;-72
2022/06/03 10:07:56;;;;;;;3.67;2.87;;;29.70;49.80;;;;;;5015675;28;20527;-73
2022/06/03 10:13:09;;;;;;;2.43;2.03;;;29.60;50.60;;;;;;5012508;28;20541;-72
2022/06/03 10:15:40;;;;;;;3.17;2.30;;;30.00;50.60;;;;;;5016644;28;20526;-73
2022/06/03 10:18:16;;;;;;;2.53;2.13;;;30.50;50.40;;;;;;5016481;28;20864;-73
2022/06/03 10:20:44;;;;;;;4.37;2.60;;;30.30;50.00;;;;;;5015675;28;20475;-74
2022/06/03 10:23:12;;;;;;;2.67;2.47;;;30.20;49.90;;;;;;5016507;28;20472;-71
2022/06/03 10:25:42;;;;;;;6.97;4.10;;;30.00;49.40;;;;;;5016883;28;20526;-72
2022/06/03 10:28:13;;;;;;;3.83;2.63;;;29.50;49.90;;;;;;5008364;28;20493;-71
2022/06/03 10:30:42;;;;;;;2.20;2.00;;;29.10;51.50;;;;;;5015488;28;20475;-74
2022/06/03 10:33:18;;;;;;;3.70;2.27;;;29.40;50.60;;;;;;5015803;28;20977;-73
2022/06/03 10:35:45;;;;;;;2.03;1.90;;;29.70;51.70;;;;;;5015843;28;20448;-73
2022/06/03 10:38:16;;;;;;;3.40;2.53;;;29.30;50.90;;;;;;5016331;28;20510;-73
2022/06/03 10:40:47;;;;;;;4.17;1.93;;;28.40;51.10;;;;;;5015486;28;20447;-73
2022/06/03 10:43:23;;;;;;;4.17;2.50;;;27.80;53.30;;;;;;5013121;28;20506;-73
2022/06/03 10:45:50;;;;;;;3.57;2.53;;;27.10;53.20;;;;;;5009988;28;20443;-73
2022/06/03 10:48:29;;;;;;;3.70;2.47;;;26.60;54.90;;;;;;5014311;28;20507;-73
2022/06/03 10:51:15;;;;;;;7.27;2.40;;;26.60;57.00;;;;;;5018155;28;20498;-73
2022/06/03 11:02:00;;;;;;;4.90;2.60;;;26.10;56.10;;;;;;5012444;28;20622;-73
2022/06/03 11:04:31;;;;;;;3.57;2.30;;;25.70;56.50;;;;;;5016865;28;20453;-73
2022/06/03 11:07:01;;;;;;;2.70;2.03;;;25.60;56.60;;;;;;5020149;28;20514;-73
2022/06/03 11:09:29;;;;;;;7.70;2.83;;;25.70;58.10;;;;;;5019977;28;20471;-73
2022/06/03 11:12:00;;;;;;;3.00;2.00;;;26.00;58.30;;;;;;5017385;28;20997;-73
2022/06/03 11:14:36;;;;;;;4.70;2.20;;;26.00;58.90;;;;;;5007290;28;20547;-72
2022/06/03 11:17:07;;;;;;;2.40;2.20;;;26.00;58.70;;;;;;5014000;28;20452;-72
2022/06/03 11:19:38;;;;;;;3.13;2.20;;;26.00;57.10;;;;;;5013417;28;20502;-73
2022/06/03 11:22:31;;;;;;;3.50;2.30;;;25.80;56.70;;;;;;5015261;28;20503;-73
2022/06/03 11:25:03;;;;;;;3.50;2.10;;;25.50;57.20;;;;;;5014033;28;20456;-72
2022/06/03 11:27:47;;;;;;;4.70;2.67;;;25.20;57.00;;;;;;5019130;28;20478;-73
2022/06/03 11:30:18;;;;;;;2.60;1.87;;;25.30;58.20;;;;;;5026709;28;20795;-73
2022/06/03 11:32:50;;;;;;;3.90;2.37;;;25.30;57.60;;;;;;5015945;28;20681;-73
2022/06/03 11:35:28;;;;;;;2.30;2.10;;;25.20;58.50;;;;;;5023056;28;20485;-73
2022/06/03 11:38:00;;;;;;;2.10;1.70;;;25.10;58.60;;;;;;5025612;28;20447;-73
2022/06/03 11:40:32;;;;;;;3.47;2.07;;;25.20;59.60;;;;;;5025591;28;20788;-72
2022/06/03 11:43:05;;;;;;;4.30;2.50;;;25.00;58.20;;;;;;5016882;28;20949;-72
2022/06/03 11:45:39;;;;;;;2.80;2.20;;;25.00;59.60;;;;;;5007265;28;20472;-73
2022/06/03 11:48:13;;;;;;;3.37;2.40;;;24.70;59.00;;;;;;5009061;28;20478;-73
2022/06/03 11:50:42;;;;;;;3.10;2.80;;;24.70;59.40;;;;;;5016926;28;20467;-74
2022/06/03 11:53:09;;;;;;;3.10;2.00;;;24.70;60.80;;;;;;5016428;28;20529;-73
2022/06/03 11:55:42;;;;;;;2.67;2.23;;;24.90;59.90;;;;;;5019927;28;20459;-73
2022/06/03 11:58:18;;;;;;;3.57;2.57;;;25.00;59.50;;;;;;5034702;28;20431;-74
2022/06/03 12:00:50;;;;;;;2.53;2.03;;;25.00;58.90;;;;;;5032418;28;20471;-72
2022/06/03 12:03:29;;;;;;;5.27;2.10;;;24.90;59.10;;;;;;5033774;28;20467;-73
2022/06/03 12:06:02;;;;;;;2.33;1.83;;;24.70;59.30;;;;;;5033839;28;20427;-72
2022/06/03 12:08:46;;;;;;;4.17;2.33;;;24.50;59.30;;;;;;5033859;28;20475;-71
2022/06/03 12:14:27;;;;;;;3.43;2.03;;;24.20;60.60;;;;;;4965187;28;20507;-74
2022/06/03 12:16:58;;;;;;;3.60;2.10;;;24.20;61.30;;;;;;5015283;28;20539;-73
2022/06/03 12:19:38;;;;;;;2.33;2.13;;;24.30;61.10;;;;;;5012432;28;20448;-73
2022/06/03 12:22:39;;;;;;;3.00;2.13;;;24.40;61.30;;;;;;5012523;28;20530;-73
2022/06/03 12:25:23;;;;;;;4.27;2.63;;;24.40;60.60;;;;;;5005449;28;20447;-72
2022/06/03 12:27:54;;;;;;;2.57;1.60;;;24.30;60.70;;;;;;5011488;28;20479;-73
2022/06/03 12:30:47;;;;;;;2.50;2.03;;;24.20;61.20;;;;;;5007360;28;20871;-73
2022/06/03 12:33:23;;;;;;;6.73;2.40;;;24.40;61.20;;;;;;5008102;28;20479;-73
2022/06/03 12:35:57;;;;;;;2.03;1.87;;;24.10;60.60;;;;;;5011510;28;20456;-73
2022/06/03 12:38:45;;;;;;;2.37;1.80;;;23.80;61.30;;;;;;5005984;28;20842;-73
2022/06/03 12:41:41;;;;;;;2.60;2.40;;;23.60;62.30;;;;;;4987370;28;20498;-73
2022/06/03 12:44:09;;;;;;;2.30;1.97;;;23.80;62.10;;;;;;5012382;28;20505;-74
2022/06/03 12:46:40;;;;;;;2.90;1.97;;;23.80;62.60;;;;;;5012690;28;20439;-73
2022/06/03 12:49:19;;;;;;;2.47;1.97;;;23.80;62.80;;;;;;5012784;28;20497;-74
2022/06/03 12:52:03;;;;;;;2.50;2.17;;;23.90;63.10;;;;;;5013063;28;20930;-73
2022/06/03 12:54:34;;;;;;;2.70;1.83;;;24.00;62.70;;;;;;5006929;28;20460;-73
2022/06/03 12:57:08;;;;;;;2.97;2.67;;;24.00;62.50;;;;;;5013186;28;20455;-72
2022/06/03 12:59:44;;;;;;;1.63;1.50;;;24.00;62.60;;;;;;5013311;28;20778;-73
2022/06/03 13:02:18;;;;;;;3.10;2.57;;;24.10;61.10;;;;;;5010389;28;20506;-73
2022/06/03 13:05:02;;;;;;;3.13;2.20;;;24.00;60.70;;;;;;5012726;28;20428;-73
2022/06/03 13:07:35;;;;;;;2.80;2.03;;;24.00;61.80;;;;;;5009580;28;20910;-72
2022/06/03 13:10:46;;;;;;;2.90;2.37;;;24.10;61.70;;;;;;5016292;28;20522;-72
2022/06/03 13:13:50;;;;;;;2.63;1.80;;;23.90;62.00;;;;;;4985093;28;21238;-72
2022/06/03 13:16:43;;;;;;;2.87;1.73;;;24.10;62.50;;;;;;5015616;28;20942;-72
2022/06/03 13:19:50;;;;;;;3.37;1.93;;;24.10;63.50;;;;;;5021263;28;20476;-72
2022/06/03 13:22:28;;;;;;;2.03;1.83;;;24.20;62.50;;;;;;5015358;28;20463;-72
2022/06/03 13:25:25;;;;;;;3.10;2.27;;;24.30;62.90;;;;;;5015537;28;20526;-70
2022/06/03 13:28:32;;;;;;;2.40;1.80;;;24.40;62.30;;;;;;5012733;28;20837;-71
2022/06/03 13:31:14;;;;;;;4.80;1.50;;;24.50;62.20;;;;;;5012606;28;20880;-71
2022/06/03 13:34:23;;;;;;;1.73;1.37;;;24.50;61.90;;;;;;5015335;28;20867;-70
2022/06/03 13:37:28;;;;;;;1.97;1.80;;;24.50;62.40;;;;;;5017955;28;20535;-71
2022/06/03 13:40:30;;;;;;;2.03;1.83;;;24.40;62.20;;;;;;5011509;28;20774;-72
2022/06/03 13:43:20;;;;;;;2.40;1.80;;;24.20;63.00;;;;;;5007963;28;20496;-72
2022/06/03 13:45:57;;;;;;;5.30;2.60;;;24.00;62.30;;;;;;5004132;28;20450;-72
2022/06/03 13:48:34;;;;;;;2.70;2.07;;;23.90;62.20;;;;;;5025154;28;20555;-72
2022/06/03 13:51:33;;;;;;;2.00;1.57;;;23.70;62.10;;;;;;5013869;28;20451;-73
2022/06/03 13:54:05;;;;;;;3.43;1.93;;;23.70;63.00;;;;;;5010024;28;20501;-73
2022/06/03 13:56:32;;;;;;;2.53;2.00;;;23.80;62.50;;;;;;5015362;28;20507;-72
2022/06/03 13:59:04;;;;;;;2.83;2.30;;;23.80;63.00;;;;;;5015941;28;20478;-73
2022/06/03 14:01:41;;;;;;;1.87;1.70;;;23.70;62.50;;;;;;5010456;28;20450;-73
2022/06/03 14:04:18;;;;;;;2.20;1.60;;;23.70;63.10;;;;;;5013280;28;20526;-72
2022/06/03 14:06:55;;;;;;;2.03;1.80;;;23.80;64.20;;;;;;5014221;28;20444;-72
2022/06/03 14:09:27;;;;;;;2.30;2.10;;;23.90;64.20;;;;;;5027662;28;20471;-72
2022/06/03 14:11:57;;;;;;;2.60;1.87;;;24.00;64.30;;;;;;5015130;28;20472;-73
2022/06/03 14:14:32;;;;;;;2.10;1.67;;;24.20;64.10;;;;;;5015173;28;20448;-72
2022/06/03 14:17:01;;;;;;;3.80;1.80;;;24.40;64.10;;;;;;5017333;28;20439;-73
2022/06/03 14:19:44;;;;;;;1.97;1.77;;;24.50;62.90;;;;;;5012441;28;20495;-73
2022/06/03 14:22:21;;;;;;;1.97;1.77;;;24.40;62.40;;;;;;5024315;28;20466;-73
2022/06/03 14:24:53;;;;;;;2.73;2.00;;;24.30;62.50;;;;;;5008831;28;20830;-73
2022/06/03 14:27:29;;;;;;;1.80;1.63;;;24.30;63.50;;;;;;5014577;28;20994;-73
2022/06/03 14:30:06;;;;;;;3.00;2.30;;;24.10;62.80;;;;;;5007721;28;20444;-73
2022/06/03 14:32:36;;;;;;;2.30;2.10;;;24.00;63.70;;;;;;5007611;28;20473;-73
2022/06/03 14:35:09;;;;;;;1.77;1.67;;;23.90;63.70;;;;;;5010137;28;20488;-73
2022/06/03 14:37:46;;;;;;;2.53;1.73;;;23.80;64.10;;;;;;5017270;28;20537;-73
2022/06/03 14:40:19;;;;;;;5.97;1.70;;;23.80;63.90;;;;;;5007497;28;20542;-72
2022/06/03 14:42:46;;;;;;;2.33;1.50;;;24.00;63.10;;;;;;5008736;28;20472;-72